Time;durP1;ratioP1;P1;durP2;ratioP2;P2;SDS_P1;SDS_P2;PMS_P1;PMS_P2;Temp;Humidity;BMP_temperature;BMP_pressure;BME280_temperature;BME280_humidity;BME280_pressure;Samples;Min_cycle;Max_cycle;Signal;HPM_P1;HPM_P2
2022/03/12 06:49:35;;;;;;;9.50;6.37;;;-1.30;77.50;;;;;;5499664;23;20500;-77
2022/03/12 06:52:04;;;;;;;11.57;7.00;;;-1.30;76.90;;;;;;4916216;29;20459;-79
2022/03/12 06:54:33;;;;;;;8.37;6.13;;;-1.30;76.60;;;;;;4915275;29;20914;-79
2022/03/12 06:57:01;;;;;;;8.50;5.93;;;-1.30;76.20;;;;;;4916452;29;20477;-76
2022/03/12 06:59:32;;;;;;;9.23;6.53;;;-1.10;75.60;;;;;;4896305;29;20486;-78
2022/03/12 07:02:01;;;;;;;9.27;6.13;;;-1.20;75.50;;;;;;4910788;29;20476;-77
2022/03/12 07:04:30;;;;;;;13.07;7.80;;;-1.10;75.60;;;;;;4925452;29;20472;-78
2022/03/12 07:07:01;;;;;;;12.67;6.27;;;-1.00;75.30;;;;;;4917770;29;20480;-79
2022/03/12 07:09:30;;;;;;;9.30;6.37;;;-0.90;75.20;;;;;;4933886;28;20441;-75
2022/03/12 07:11:58;;;;;;;9.40;6.63;;;-0.90;74.40;;;;;;4928010;28;20461;-76
2022/03/12 07:14:27;;;;;;;11.00;6.80;;;-0.90;74.50;;;;;;4916511;29;20536;-76
2022/03/12 07:16:56;;;;;;;9.07;6.47;;;-0.80;74.10;;;;;;4917587;29;20489;-78
2022/03/12 07:19:24;;;;;;;9.77;6.40;;;-0.60;73.60;;;;;;4912846;29;20469;-75
2022/03/12 07:21:52;;;;;;;9.50;6.40;;;-0.60;73.60;;;;;;4908562;29;20491;-76
2022/03/12 07:24:22;;;;;;;12.13;7.10;;;-0.50;73.60;;;;;;4897293;29;20468;-78
2022/03/12 07:26:51;;;;;;;9.80;6.13;;;-0.30;73.00;;;;;;4899748;29;20468;-79
2022/03/12 07:29:19;;;;;;;15.37;6.47;;;-0.20;72.40;;;;;;4915902;29;20552;-77
2022/03/12 07:31:50;;;;;;;8.97;6.67;;;0.10;72.20;;;;;;4915989;29;20496;-76
2022/03/12 07:34:20;;;;;;;10.40;6.60;;;0.30;71.50;;;;;;4915862;29;20947;-78
2022/03/12 07:36:48;;;;;;;9.50;6.53;;;0.30;70.60;;;;;;4911199;29;20469;-77
2022/03/12 07:39:16;;;;;;;11.73;6.70;;;0.50;70.40;;;;;;4898389;29;20549;-76
2022/03/12 07:41:48;;;;;;;9.87;7.03;;;0.60;69.70;;;;;;4908055;29;20480;-77
2022/03/12 07:44:16;;;;;;;14.13;6.97;;;0.60;70.00;;;;;;4906372;29;20555;-75
2022/03/12 07:46:45;;;;;;;9.63;6.37;;;0.90;68.60;;;;;;4912919;29;20544;-75
2022/03/12 07:49:14;;;;;;;13.23;6.50;;;1.00;67.90;;;;;;4910937;29;20336;-77
2022/03/12 07:51:43;;;;;;;11.53;7.63;;;1.40;67.60;;;;;;4896391;29;20714;-78
2022/03/12 07:54:13;;;;;;;14.60;6.73;;;2.00;65.50;;;;;;4908305;29;20209;-77
2022/03/12 07:56:42;;;;;;;9.83;6.83;;;2.70;64.50;;;;;;4914055;29;20245;-78
2022/03/12 07:59:12;;;;;;;8.67;6.50;;;3.20;62.60;;;;;;4915348;29;20301;-78
2022/03/12 08:01:40;;;;;;;8.87;6.27;;;3.20;60.90;;;;;;4914784;29;20898;-76
2022/03/12 08:04:08;;;;;;;9.80;6.40;;;3.80;61.90;;;;;;4916541;29;20212;-77
2022/03/12 08:06:36;;;;;;;13.10;8.10;;;4.50;59.00;;;;;;4913458;29;20209;-76
2022/03/12 08:09:05;;;;;;;9.47;6.80;;;4.90;58.80;;;;;;4916705;29;20241;-76
2022/03/12 08:11:34;;;;;;;8.80;6.23;;;5.50;57.50;;;;;;4917077;29;20248;-75
2022/03/12 08:14:06;;;;;;;10.43;7.00;;;6.70;55.70;;;;;;4920549;29;20241;-75
2022/03/12 08:16:38;;;;;;;9.90;6.23;;;7.20;54.20;;;;;;4917096;29;20253;-77
2022/03/12 08:19:09;;;;;;;9.23;7.00;;;7.80;53.70;;;;;;4916045;29;20233;-76
2022/03/12 08:21:38;;;;;;;9.90;6.53;;;7.90;52.50;;;;;;4916801;29;20209;-77
2022/03/12 08:24:15;;;;;;;10.17;7.53;;;7.80;52.80;;;;;;4916268;29;20217;-78
2022/03/12 08:26:45;;;;;;;10.20;7.17;;;7.40;52.60;;;;;;4916006;29;20268;-78
2022/03/12 08:29:15;;;;;;;11.70;6.63;;;6.90;53.10;;;;;;4916875;29;20300;-77
2022/03/12 08:31:45;;;;;;;7.53;6.60;;;7.50;54.00;;;;;;4916802;29;20213;-79
2022/03/12 08:34:14;;;;;;;8.60;6.87;;;8.20;52.90;;;;;;4916008;29;20276;-79
2022/03/12 08:36:44;;;;;;;8.80;6.47;;;8.60;51.50;;;;;;4916983;29;20213;-77
2022/03/12 08:39:13;;;;;;;9.63;6.13;;;8.30;51.60;;;;;;4916346;29;20248;-77
2022/03/12 08:41:41;;;;;;;8.33;6.90;;;9.00;51.40;;;;;;4916148;29;20227;-77
2022/03/12 08:44:10;;;;;;;7.90;6.00;;;9.10;51.10;;;;;;4914659;29;20240;-78
2022/03/12 08:46:42;;;;;;;14.30;9.90;;;10.90;52.90;;;;;;4916088;29;20252;-76
2022/03/12 08:49:11;;;;;;;12.13;9.73;;;11.40;48.10;;;;;;4916315;29;20610;-76
2022/03/12 08:51:41;;;;;;;8.57;7.50;;;11.70;47.80;;;;;;4915565;29;20244;-77
2022/03/12 08:54:13;;;;;;;10.13;7.33;;;12.20;45.90;;;;;;4916040;29;20236;-74
2022/03/12 08:56:41;;;;;;;11.30;8.40;;;11.80;45.80;;;;;;4920011;29;20259;-76
2022/03/12 08:59:09;;;;;;;9.33;7.47;;;11.90;45.90;;;;;;4920579;29;20239;-74
2022/03/12 09:01:37;;;;;;;8.37;6.83;;;12.20;46.40;;;;;;4919431;29;20303;-79
2022/03/12 09:04:05;;;;;;;10.20;7.83;;;12.80;46.40;;;;;;4919418;29;20280;-78
2022/03/12 09:06:39;;;;;;;11.50;8.13;;;13.10;44.40;;;;;;4920256;29;20303;-79
2022/03/12 09:09:10;;;;;;;11.67;8.63;;;12.80;44.40;;;;;;4919464;29;20288;-77
2022/03/12 09:11:38;;;;;;;12.43;9.40;;;12.80;45.20;;;;;;4919616;29;20307;-80
2022/03/12 09:14:06;;;;;;;13.07;10.20;;;12.90;44.90;;;;;;4919200;29;20675;-75
2022/03/12 09:16:36;;;;;;;9.30;6.83;;;12.60;45.40;;;;;;4919269;29;20291;-79
2022/03/12 09:19:08;;;;;;;8.27;7.47;;;12.90;45.20;;;;;;4919418;29;20231;-78
2022/03/12 09:21:37;;;;;;;9.47;7.20;;;13.10;45.40;;;;;;4920656;29;20600;-77
2022/03/12 09:24:06;;;;;;;9.33;7.50;;;13.00;45.00;;;;;;4921902;29;20647;-76
2022/03/12 09:26:35;;;;;;;8.83;7.60;;;13.10;45.60;;;;;;4923530;29;20212;-75
2022/03/12 09:29:04;;;;;;;12.83;7.87;;;13.30;44.60;;;;;;4929086;29;20295;-79
2022/03/12 09:31:32;;;;;;;11.30;8.60;;;13.00;45.10;;;;;;4927462;29;20220;-75
2022/03/12 09:34:02;;;;;;;10.73;8.33;;;13.20;45.00;;;;;;4930061;29;20223;-75
2022/03/12 09:36:30;;;;;;;9.47;8.57;;;14.00;44.20;;;;;;4924636;29;20259;-76
2022/03/12 09:39:01;;;;;;;12.47;8.30;;;14.50;43.20;;;;;;4933405;29;20267;-77
2022/03/12 09:41:33;;;;;;;9.13;7.47;;;15.30;42.80;;;;;;4924097;29;20213;-77
2022/03/12 09:44:03;;;;;;;10.07;8.00;;;15.50;42.90;;;;;;4923986;29;20652;-77
2022/03/12 09:46:31;;;;;;;10.30;7.33;;;15.20;42.10;;;;;;4929669;29;20264;-78
2022/03/12 09:49:00;;;;;;;9.13;7.80;;;15.90;42.00;;;;;;4930991;29;20221;-76
2022/03/12 09:51:29;;;;;;;9.60;7.80;;;16.50;41.70;;;;;;4925619;29;20284;-77
2022/03/12 09:53:57;;;;;;;8.80;7.73;;;16.30;40.50;;;;;;4930112;29;20295;-74
2022/03/12 09:56:26;;;;;;;9.23;7.87;;;15.90;41.60;;;;;;4927345;29;20213;-77
2022/03/12 09:58:54;;;;;;;9.57;7.77;;;16.10;41.90;;;;;;4930156;29;20230;-76
2022/03/12 10:01:23;;;;;;;10.33;8.33;;;15.60;41.70;;;;;;4926406;29;20208;-76
2022/03/12 10:03:51;;;;;;;13.97;8.70;;;15.60;42.50;;;;;;4937232;29;20272;-75
2022/03/12 10:06:21;;;;;;;13.67;9.07;;;15.50;41.90;;;;;;4929238;29;20676;-77
2022/03/12 10:08:49;;;;;;;10.40;8.53;;;15.60;42.70;;;;;;4920862;29;20760;-77
2022/03/12 10:11:19;;;;;;;11.43;8.67;;;15.90;42.10;;;;;;4916759;29;20255;-77
2022/03/12 10:13:48;;;;;;;9.90;8.13;;;16.60;40.80;;;;;;4917146;29;20244;-75
2022/03/12 10:16:18;;;;;;;10.73;7.67;;;16.10;42.30;;;;;;4916909;29;20751;-76
2022/03/12 10:18:47;;;;;;;10.20;9.20;;;16.10;42.30;;;;;;4918379;29;20241;-76
2022/03/12 10:21:16;;;;;;;11.27;8.87;;;16.60;41.20;;;;;;4917255;29;20299;-76
2022/03/12 10:23:44;;;;;;;11.80;9.00;;;15.70;41.80;;;;;;4929431;29;20232;-78
2022/03/12 10:26:13;;;;;;;12.00;8.40;;;15.80;42.70;;;;;;4922822;29;20240;-78
2022/03/12 10:28:43;;;;;;;9.87;8.80;;;16.10;42.20;;;;;;4919690;29;20239;-77
2022/03/12 10:31:18;;;;;;;10.63;8.90;;;16.20;41.90;;;;;;4920163;29;20229;-77
2022/03/12 10:33:46;;;;;;;14.13;9.30;;;17.10;42.00;;;;;;4922738;29;20702;-78
2022/03/12 10:36:16;;;;;;;10.27;8.87;;;17.50;42.10;;;;;;4922558;29;20223;-77
2022/03/12 10:38:46;;;;;;;9.57;8.47;;;16.50;41.30;;;;;;4922962;29;20271;-78
2022/03/12 10:41:16;;;;;;;12.73;9.27;;;17.00;42.00;;;;;;4920859;29;20245;-78
2022/03/12 10:43:46;;;;;;;9.53;8.33;;;16.40;42.20;;;;;;4925949;29;20248;-76
2022/03/12 10:46:24;;;;;;;12.53;9.57;;;17.20;41.80;;;;;;4928222;29;20213;-76
2022/03/12 10:48:57;;;;;;;12.97;11.30;;;16.50;41.40;;;;;;4927970;29;20291;-77
2022/03/12 10:51:38;;;;;;;15.43;11.77;;;15.10;42.60;;;;;;4929704;29;20197;-78
2022/03/12 10:54:10;;;;;;;11.90;9.93;;;15.50;43.70;;;;;;4933697;29;20212;-75
2022/03/12 10:56:43;;;;;;;13.10;9.67;;;15.80;43.20;;;;;;4929559;29;20204;-77
2022/03/12 10:59:17;;;;;;;12.47;10.73;;;15.80;44.00;;;;;;4919983;29;20255;-76
2022/03/12 11:01:51;;;;;;;11.37;9.90;;;16.90;43.60;;;;;;4922441;29;20204;-75
2022/03/12 11:04:26;;;;;;;11.53;10.00;;;16.30;43.20;;;;;;4926655;29;20264;-76
2022/03/12 11:06:57;;;;;;;14.67;10.90;;;16.70;44.60;;;;;;4923969;29;20257;-78
2022/03/12 11:09:35;;;;;;;11.80;9.93;;;17.50;42.80;;;;;;4918415;29;20605;-78
2022/03/12 11:12:30;;;;;;;10.93;9.80;;;17.00;41.90;;;;;;4918448;29;20248;-78
2022/03/12 11:15:10;;;;;;;13.97;10.93;;;17.70;42.40;;;;;;4918220;29;20212;-75
2022/03/12 11:17:44;;;;;;;12.67;10.03;;;18.10;41.80;;;;;;4901517;29;20204;-78
2022/03/12 11:20:18;;;;;;;13.43;10.90;;;18.40;42.10;;;;;;4901507;29;20265;-77
2022/03/12 11:22:50;;;;;;;15.97;10.63;;;17.80;41.40;;;;;;4908018;29;20259;-79
2022/03/12 11:25:22;;;;;;;16.00;10.73;;;18.10;42.10;;;;;;4920051;29;20217;-77
2022/03/12 11:27:50;;;;;;;14.67;12.03;;;18.30;40.60;;;;;;4916595;29;20236;-79
2022/03/12 11:30:22;;;;;;;13.93;10.97;;;17.40;41.40;;;;;;4907300;29;20205;-79
2022/03/12 11:33:05;;;;;;;13.63;11.20;;;16.90;42.70;;;;;;4913949;29;20219;-79
2022/03/12 11:35:36;;;;;;;22.30;18.60;;;16.90;42.50;;;;;;4910823;29;20232;-77
2022/03/12 11:38:13;;;;;;;21.90;18.73;;;17.30;42.70;;;;;;4910750;29;20205;-79
2022/03/12 11:40:41;;;;;;;14.50;12.47;;;17.40;42.70;;;;;;4901399;29;20272;-78
2022/03/12 11:43:22;;;;;;;14.37;11.97;;;17.60;42.20;;;;;;4924319;29;20252;-76
2022/03/12 11:46:05;;;;;;;14.30;11.73;;;16.40;42.40;;;;;;4919850;29;20197;-78
2022/03/12 11:48:38;;;;;;;14.87;11.87;;;16.10;43.60;;;;;;4919548;29;20201;-80
2022/03/12 11:51:18;;;;;;;14.80;11.80;;;16.20;43.90;;;;;;4918156;29;20664;-76
2022/03/12 11:53:47;;;;;;;15.57;11.77;;;16.60;43.40;;;;;;4916723;29;20248;-77
2022/03/12 11:56:16;;;;;;;16.00;12.97;;;16.90;43.50;;;;;;4916824;29;20197;-79
2022/03/12 11:58:45;;;;;;;13.13;11.70;;;16.70;43.80;;;;;;4915487;29;20217;-79
2022/03/12 12:01:20;;;;;;;13.80;11.70;;;16.60;42.90;;;;;;4916114;29;20232;-80
2022/03/12 12:03:53;;;;;;;15.13;12.47;;;16.00;43.90;;;;;;4915592;29;20239;-79
2022/03/12 12:06:22;;;;;;;15.17;12.30;;;15.40;43.80;;;;;;4915978;29;20205;-78
2022/03/12 12:08:53;;;;;;;18.53;12.57;;;14.70;44.40;;;;;;4920972;29;20296;-79
2022/03/12 12:11:22;;;;;;;17.43;12.90;;;14.60;45.60;;;;;;4921963;29;20207;-77
2022/03/12 12:13:51;;;;;;;14.97;12.30;;;14.70;46.20;;;;;;4935245;29;20244;-81
2022/03/12 12:16:22;;;;;;;16.33;12.50;;;14.60;46.10;;;;;;4927269;29;20212;-75
2022/03/12 12:18:52;;;;;;;18.43;13.70;;;14.40;46.10;;;;;;4916516;29;20205;-77
2022/03/12 12:21:24;;;;;;;18.13;12.53;;;13.70;46.80;;;;;;4915425;29;20269;-78
2022/03/12 12:23:52;;;;;;;18.03;13.77;;;14.00;47.90;;;;;;4915786;29;20386;-79
2022/03/12 12:26:22;;;;;;;15.37;12.23;;;13.70;46.60;;;;;;4916094;29;20659;-79
2022/03/12 12:28:52;;;;;;;19.33;14.20;;;13.40;47.50;;;;;;4914969;29;20236;-79
2022/03/12 12:31:24;;;;;;;18.77;13.67;;;13.60;48.00;;;;;;4913838;29;20681;-79
2022/03/12 12:33:56;;;;;;;19.80;13.30;;;13.60;47.60;;;;;;4908148;29;20287;-78
2022/03/12 12:36:24;;;;;;;17.70;13.23;;;13.10;47.20;;;;;;4899934;29;20292;-79
2022/03/12 12:39:13;;;;;;;18.60;13.03;;;13.10;48.60;;;;;;4903782;29;20261;-75
2022/03/12 12:41:56;;;;;;;16.83;12.90;;;12.90;47.90;;;;;;4909633;29;20300;-79
2022/03/12 12:44:41;;;;;;;21.33;13.93;;;12.70;47.50;;;;;;4902187;29;20627;-76
2022/03/12 12:47:18;;;;;;;18.63;13.60;;;12.50;48.10;;;;;;4899224;29;20210;-77
2022/03/12 12:49:58;;;;;;;19.83;14.57;;;12.20;48.60;;;;;;4896854;29;20285;-78
2022/03/12 12:52:32;;;;;;;19.97;13.57;;;12.40;48.40;;;;;;4907080;29;20256;-77
2022/03/12 12:55:01;;;;;;;20.57;14.17;;;12.20;48.60;;;;;;4918653;29;20211;-77
2022/03/12 12:57:40;;;;;;;21.40;15.10;;;12.70;48.60;;;;;;4915256;29;20219;-76
2022/03/12 13:00:32;;;;;;;18.30;13.67;;;13.20;48.50;;;;;;4915300;29;20291;-80
2022/03/12 13:03:04;;;;;;;21.70;14.43;;;13.00;47.70;;;;;;4886313;29;20221;-78
2022/03/12 13:05:46;;;;;;;22.43;14.80;;;12.60;47.60;;;;;;4915675;29;20221;-79
2022/03/12 13:08:15;;;;;;;18.03;13.73;;;12.40;47.90;;;;;;4897211;29;20229;-80
2022/03/12 13:10:43;;;;;;;20.33;13.57;;;12.20;48.10;;;;;;4896302;29;20281;-75
2022/03/12 13:13:15;;;;;;;19.30;13.57;;;12.10;48.60;;;;;;4897437;29;20221;-75
2022/03/12 13:15:46;;;;;;;17.47;13.13;;;12.10;48.60;;;;;;4897522;29;20249;-75
2022/03/12 13:18:39;;;;;;;22.20;13.57;;;11.90;48.50;;;;;;4915628;29;20223;-79
2022/03/12 13:21:35;;;;;;;17.73;12.77;;;11.90;48.60;;;;;;4916294;29;20358;-79
2022/03/12 13:24:10;;;;;;;16.30;12.37;;;12.10;48.50;;;;;;4913818;29;20209;-79
2022/03/12 13:27:03;;;;;;;18.57;13.10;;;12.10;48.20;;;;;;4912211;29;20280;-77
2022/03/12 13:29:31;;;;;;;17.17;12.13;;;12.10;48.10;;;;;;4915653;29;20219;-76
2022/03/12 13:32:01;;;;;;;17.73;11.57;;;12.20;48.60;;;;;;4915644;29;20811;-78
2022/03/12 13:34:29;;;;;;;17.67;12.80;;;12.30;48.10;;;;;;4916176;29;20213;-78
2022/03/12 13:36:59;;;;;;;17.07;12.57;;;12.60;48.10;;;;;;4915085;29;20236;-76
2022/03/12 13:39:28;;;;;;;17.23;12.50;;;12.70;47.20;;;;;;4916383;29;20225;-78
2022/03/12 13:42:01;;;;;;;15.23;11.63;;;12.30;47.20;;;;;;4918080;29;20272;-76
2022/03/12 13:44:30;;;;;;;16.60;10.93;;;11.80;48.00;;;;;;4922461;29;20227;-79
2022/03/12 13:47:05;;;;;;;14.27;10.93;;;12.10;48.50;;;;;;4921081;29;20213;-78
2022/03/12 13:49:35;;;;;;;14.97;10.80;;;12.10;48.80;;;;;;4919699;29;20224;-76
2022/03/12 13:52:08;;;;;;;14.50;10.97;;;12.30;48.10;;;;;;4920666;29;20251;-78
2022/03/12 13:54:36;;;;;;;14.53;10.50;;;12.10;47.80;;;;;;4920887;29;20208;-76
2022/03/12 13:57:05;;;;;;;15.10;10.83;;;11.90;47.70;;;;;;4910645;29;20264;-77
2022/03/12 13:59:34;;;;;;;14.43;9.93;;;12.00;48.10;;;;;;4900191;29;20205;-77
2022/03/12 14:02:12;;;;;;;13.70;10.50;;;12.10;47.70;;;;;;4908535;29;20220;-76
2022/03/12 14:04:40;;;;;;;14.53;10.00;;;12.20;48.20;;;;;;4920950;29;20220;-80
2022/03/12 14:07:19;;;;;;;17.33;10.70;;;12.00;47.60;;;;;;4919660;29;20201;-75
2022/03/12 14:09:49;;;;;;;14.83;10.30;;;12.10;47.50;;;;;;4921405;29;20205;-75
2022/03/12 14:12:25;;;;;;;14.33;10.07;;;12.20;47.70;;;;;;4927262;29;20193;-76
2022/03/12 14:15:00;;;;;;;14.13;10.00;;;12.10;47.20;;;;;;4925336;29;20268;-76
2022/03/12 14:17:30;;;;;;;13.73;10.17;;;12.30;48.00;;;;;;4920139;29;20208;-78
2022/03/12 14:20:03;;;;;;;12.60;9.83;;;12.40;47.10;;;;;;4920773;29;20197;-78
2022/03/12 14:22:33;;;;;;;16.13;12.03;;;12.50;47.30;;;;;;4921490;29;20220;-77
2022/03/12 14:25:05;;;;;;;12.90;10.27;;;12.50;46.70;;;;;;4917015;29;20613;-76
2022/03/12 14:27:36;;;;;;;13.87;10.83;;;12.50;46.70;;;;;;4910776;29;20230;-76
2022/03/12 14:30:08;;;;;;;13.63;9.27;;;12.30;46.60;;;;;;4901272;29;20205;-78
2022/03/12 14:32:36;;;;;;;12.73;9.63;;;12.40;46.60;;;;;;4914171;29;20197;-76
2022/03/12 14:35:05;;;;;;;11.77;9.07;;;12.40;46.70;;;;;;4918118;29;20259;-78
2022/03/12 14:37:35;;;;;;;10.37;7.97;;;12.20;46.50;;;;;;4917136;29;20232;-76
2022/03/12 14:40:07;;;;;;;13.27;8.70;;;12.20;46.50;;;;;;4918777;29;20245;-76
2022/03/12 14:42:37;;;;;;;11.97;8.07;;;12.20;46.50;;;;;;4918302;29;20665;-76
2022/03/12 14:45:06;;;;;;;13.23;7.80;;;12.10;46.40;;;;;;4918449;29;20343;-79
2022/03/12 14:47:36;;;;;;;13.20;8.60;;;12.00;46.50;;;;;;4918364;29;20209;-77
2022/03/12 14:50:08;;;;;;;14.23;8.33;;;12.10;46.80;;;;;;4913834;29;20739;-76
2022/03/12 14:52:44;;;;;;;11.50;8.10;;;12.10;46.40;;;;;;4898358;29;20218;-79
2022/03/12 14:55:14;;;;;;;14.13;8.90;;;12.10;45.80;;;;;;4903797;29;20229;-77
2022/03/12 14:57:44;;;;;;;16.67;10.37;;;12.30;46.20;;;;;;4917818;29;20197;-78
2022/03/12 15:00:16;;;;;;;12.03;8.60;;;12.30;45.30;;;;;;4913930;29;20268;-79
2022/03/12 15:02:48;;;;;;;11.97;8.80;;;12.30;45.60;;;;;;4914297;29;20275;-78
2022/03/12 15:05:18;;;;;;;15.60;8.83;;;12.40;45.90;;;;;;4917664;29;20224;-78
2022/03/12 15:07:50;;;;;;;13.60;9.10;;;12.50;45.80;;;;;;4918007;29;20592;-77
2022/03/12 15:10:21;;;;;;;13.33;9.37;;;12.40;44.60;;;;;;4916813;29;20201;-78
2022/03/12 15:12:54;;;;;;;13.50;8.93;;;12.20;44.50;;;;;;4919325;29;20272;-77
2022/03/12 15:15:25;;;;;;;9.50;7.67;;;12.10;45.30;;;;;;4925021;29;20221;-78
2022/03/12 15:18:08;;;;;;;12.70;8.77;;;12.00;44.70;;;;;;4922526;29;20197;-79
2022/03/12 15:20:38;;;;;;;11.13;8.47;;;12.20;44.80;;;;;;4919023;29;20212;-78
2022/03/12 15:23:09;;;;;;;13.00;9.20;;;12.20;44.90;;;;;;4916645;29;20244;-78
2022/03/12 15:25:42;;;;;;;12.10;8.20;;;12.00;44.40;;;;;;4909675;29;20561;-78
2022/03/12 15:28:14;;;;;;;16.07;8.57;;;11.90;43.60;;;;;;4916559;29;20237;-79
2022/03/12 15:30:46;;;;;;;10.60;7.63;;;11.70;43.60;;;;;;4915109;29;20205;-77
2022/03/12 15:33:28;;;;;;;12.63;8.53;;;11.80;43.70;;;;;;4915233;29;20654;-78
2022/03/12 15:36:10;;;;;;;13.30;8.27;;;11.80;43.90;;;;;;4915217;29;20276;-78
2022/03/12 15:38:43;;;;;;;11.13;7.50;;;11.70;42.60;;;;;;4915679;29;20304;-77
2022/03/12 15:41:12;;;;;;;8.10;6.00;;;11.60;42.40;;;;;;4913891;29;20312;-78
2022/03/12 15:43:43;;;;;;;10.27;6.73;;;11.40;40.80;;;;;;4915276;29;20217;-79
2022/03/12 15:46:12;;;;;;;9.00;5.23;;;11.40;40.10;;;;;;4915157;29;20225;-77
2022/03/12 15:48:41;;;;;;;6.97;5.50;;;11.20;39.60;;;;;;4912191;29;20237;-78
2022/03/12 15:51:10;;;;;;;9.07;4.53;;;11.20;39.20;;;;;;4915942;29;20299;-78
2022/03/12 15:53:41;;;;;;;5.97;4.53;;;11.10;38.80;;;;;;4916190;29;20668;-77
2022/03/12 15:56:11;;;;;;;11.57;5.97;;;11.10;39.00;;;;;;4916306;29;20216;-76
2022/03/12 15:58:42;;;;;;;5.50;4.40;;;11.00;39.40;;;;;;4912610;29;20244;-79
2022/03/12 16:01:10;;;;;;;7.00;4.60;;;10.90;39.50;;;;;;4914211;29;20209;-77
2022/03/12 16:03:39;;;;;;;5.30;4.20;;;10.90;38.80;;;;;;4914250;29;20671;-78
2022/03/12 16:06:07;;;;;;;10.53;5.43;;;10.80;38.80;;;;;;4915413;29;20259;-78
2022/03/12 16:08:38;;;;;;;6.47;5.10;;;10.80;39.00;;;;;;4917246;29;20213;-78
2022/03/12 16:11:10;;;;;;;5.77;3.57;;;10.70;38.10;;;;;;4917685;29;20259;-79
2022/03/12 16:13:40;;;;;;;7.50;4.37;;;10.60;38.30;;;;;;4915991;29;20197;-78
2022/03/12 16:16:15;;;;;;;6.93;4.03;;;10.60;39.10;;;;;;4909766;29;20233;-78
2022/03/12 16:18:46;;;;;;;6.83;3.73;;;10.50;39.50;;;;;;4897366;29;20209;-78
2022/03/12 16:21:15;;;;;;;4.60;3.80;;;10.40;39.50;;;;;;4897082;29;20216;-76
2022/03/12 16:23:43;;;;;;;5.93;4.00;;;10.30;39.40;;;;;;4897031;29;20628;-77
2022/03/12 16:26:13;;;;;;;6.60;4.60;;;10.20;39.70;;;;;;4913442;29;20326;-77
2022/03/12 16:28:41;;;;;;;7.07;4.00;;;10.20;39.70;;;;;;4916184;29;20232;-77
2022/03/12 16:31:10;;;;;;;7.00;4.33;;;10.00;39.70;;;;;;4914052;29;20565;-77
2022/03/12 16:33:40;;;;;;;9.53;3.87;;;10.00;39.60;;;;;;4926748;29;20220;-74
2022/03/12 16:36:08;;;;;;;7.20;3.97;;;9.90;40.60;;;;;;4924168;29;20236;-76
2022/03/12 16:38:36;;;;;;;6.97;4.20;;;9.80;40.80;;;;;;4916221;29;20216;-75
2022/03/12 16:41:05;;;;;;;5.03;3.77;;;9.80;40.90;;;;;;4922493;29;20275;-75
2022/03/12 16:43:36;;;;;;;5.23;4.00;;;9.60;41.20;;;;;;4927478;29;20224;-75
2022/03/12 16:46:04;;;;;;;6.40;4.00;;;9.60;40.20;;;;;;4897365;29;20202;-76
2022/03/12 16:48:39;;;;;;;7.70;4.27;;;9.60;40.50;;;;;;4901049;29;20308;-76
2022/03/12 16:51:07;;;;;;;7.97;4.57;;;9.50;40.30;;;;;;4912839;29;20299;-76
2022/03/12 16:53:38;;;;;;;7.23;5.00;;;9.40;40.50;;;;;;4917695;29;20216;-76
2022/03/12 16:56:06;;;;;;;6.97;4.70;;;9.20;41.00;;;;;;4920688;29;20232;-78
2022/03/12 16:58:36;;;;;;;8.27;4.93;;;9.10;41.50;;;;;;4916100;29;20217;-77
2022/03/12 17:01:05;;;;;;;7.93;5.43;;;9.00;41.70;;;;;;4915347;29;20292;-75
2022/03/12 17:03:34;;;;;;;7.70;5.20;;;8.90;41.90;;;;;;4916502;29;20242;-75
2022/03/12 17:06:02;;;;;;;9.60;5.30;;;8.80;42.50;;;;;;4917129;29;20264;-77
2022/03/12 17:08:30;;;;;;;6.70;4.63;;;8.70;42.60;;;;;;4910882;29;20475;-75
2022/03/12 17:11:00;;;;;;;7.47;4.73;;;8.60;43.00;;;;;;4897602;29;20700;-76
2022/03/12 17:13:29;;;;;;;6.60;4.23;;;8.50;44.00;;;;;;4898966;29;20244;-77
2022/03/12 17:16:02;;;;;;;7.07;4.23;;;8.30;43.70;;;;;;4902007;29;20197;-76
2022/03/12 17:18:31;;;;;;;7.87;4.20;;;8.20;44.20;;;;;;4900850;29;20269;-77
2022/03/12 17:21:00;;;;;;;7.33;4.43;;;8.10;44.40;;;;;;4901269;29;20292;-80
2022/03/12 17:23:28;;;;;;;5.23;4.07;;;8.00;44.60;;;;;;4900624;29;20238;-80
2022/03/12 17:25:58;;;;;;;5.33;4.27;;;8.00;44.10;;;;;;4914864;29;20702;-77
2022/03/12 17:28:27;;;;;;;6.10;4.70;;;8.00;44.10;;;;;;4908309;29;20774;-76
2022/03/12 17:30:58;;;;;;;8.50;5.00;;;7.90;44.00;;;;;;4919928;29;20209;-76
2022/03/12 17:33:28;;;;;;;8.00;4.57;;;7.80;45.00;;;;;;4913355;29;20212;-75
2022/03/12 17:35:56;;;;;;;5.70;4.60;;;7.70;44.60;;;;;;4913286;29;20209;-76
2022/03/12 17:38:26;;;;;;;8.90;5.20;;;7.60;45.10;;;;;;4929700;29;20644;-77
2022/03/12 17:40:54;;;;;;;11.10;4.93;;;7.60;44.80;;;;;;4932759;29;20209;-78
2022/03/12 17:43:26;;;;;;;8.40;4.80;;;7.50;45.20;;;;;;4933969;29;20723;-75
2022/03/12 17:45:59;;;;;;;11.87;5.53;;;7.40;45.60;;;;;;4919837;29;20241;-78
2022/03/12 17:48:27;;;;;;;10.33;6.37;;;7.30;45.80;;;;;;4914629;29;20260;-76
2022/03/12 17:50:58;;;;;;;9.30;5.40;;;7.10;46.00;;;;;;4917883;29;20284;-79
2022/03/12 17:53:30;;;;;;;6.80;4.60;;;7.20;46.00;;;;;;4918108;29;20251;-77
2022/03/12 17:55:58;;;;;;;8.20;4.80;;;7.10;45.90;;;;;;4917708;29;20217;-75
2022/03/12 17:58:26;;;;;;;8.90;4.80;;;7.10;46.10;;;;;;4921625;29;20655;-78
2022/03/12 18:00:59;;;;;;;9.57;5.13;;;7.10;46.10;;;;;;4912161;29;20229;-76
2022/03/12 18:03:28;;;;;;;8.13;4.70;;;7.00;46.20;;;;;;4899163;29;20245;-77
2022/03/12 18:05:57;;;;;;;9.67;6.10;;;7.00;46.40;;;;;;4913639;29;20570;-76
2022/03/12 18:08:25;;;;;;;8.47;5.37;;;6.90;46.80;;;;;;4920380;29;20579;-76
2022/03/12 18:10:54;;;;;;;9.77;5.10;;;6.80;46.90;;;;;;4914562;29;20663;-79
2022/03/12 18:13:23;;;;;;;9.07;5.00;;;6.70;47.10;;;;;;4899471;29;20233;-76
2022/03/12 18:15:52;;;;;;;9.83;5.77;;;6.60;47.40;;;;;;4903789;29;20220;-75
2022/03/12 18:18:22;;;;;;;14.00;5.63;;;6.50;47.50;;;;;;4918904;29;20209;-74
2022/03/12 18:20:53;;;;;;;8.93;5.37;;;6.50;47.50;;;;;;4918372;29;20236;-77
2022/03/12 18:23:22;;;;;;;8.40;5.67;;;6.40;48.00;;;;;;4918023;29;20671;-78
2022/03/12 18:25:52;;;;;;;8.10;5.40;;;6.40;47.80;;;;;;4917564;29;20356;-75
2022/03/12 18:28:24;;;;;;;7.77;5.20;;;6.30;47.70;;;;;;4921260;29;20288;-78
2022/03/12 18:30:53;;;;;;;8.80;4.63;;;6.30;48.00;;;;;;4915556;29;20247;-78
2022/03/12 18:33:23;;;;;;;7.87;5.07;;;6.30;48.10;;;;;;4910039;29;20717;-79
2022/03/12 18:35:53;;;;;;;10.33;5.13;;;6.20;48.10;;;;;;4908563;29;20220;-76
2022/03/12 18:38:21;;;;;;;7.63;5.30;;;6.20;48.20;;;;;;4916725;29;20218;-77
2022/03/12 18:40:53;;;;;;;9.97;5.83;;;6.20;48.00;;;;;;4914054;29;20207;-78
2022/03/12 18:43:22;;;;;;;11.30;6.30;;;6.20;47.90;;;;;;4917152;29;20259;-76
2022/03/12 18:45:50;;;;;;;8.47;5.20;;;6.10;48.20;;;;;;4916198;29;20288;-78
2022/03/12 18:48:22;;;;;;;9.23;5.67;;;6.10;48.50;;;;;;4919514;29;20260;-75
2022/03/12 18:50:51;;;;;;;10.63;6.07;;;6.00;48.60;;;;;;4917299;29;20205;-75
2022/03/12 18:53:23;;;;;;;9.87;5.10;;;5.90;48.50;;;;;;4917438;29;20367;-79
2022/03/12 18:55:52;;;;;;;9.47;5.50;;;5.90;48.50;;;;;;4916258;29;20204;-80
2022/03/12 18:58:22;;;;;;;8.20;5.70;;;5.90;48.50;;;;;;4917410;29;20249;-77
2022/03/12 19:00:50;;;;;;;9.03;5.70;;;5.90;48.20;;;;;;4918867;29;20209;-79
2022/03/12 19:03:24;;;;;;;7.90;5.90;;;5.90;48.30;;;;;;4910456;29;20225;-76
2022/03/12 19:05:53;;;;;;;8.10;5.70;;;5.80;48.40;;;;;;4898095;29;20303;-78
2022/03/12 19:08:22;;;;;;;10.53;5.53;;;5.70;48.40;;;;;;4897544;29;20567;-77
2022/03/12 19:10:51;;;;;;;10.83;5.63;;;5.70;48.40;;;;;;4906787;29;20609;-79
2022/03/12 19:13:21;;;;;;;7.77;5.23;;;5.60;48.50;;;;;;4916547;29;20284;-79
2022/03/12 19:15:50;;;;;;;8.40;5.70;;;5.50;48.80;;;;;;4916163;29;20296;-78
2022/03/12 19:18:19;;;;;;;7.70;5.10;;;5.50;48.80;;;;;;4916258;29;20587;-77
2022/03/12 19:20:50;;;;;;;7.67;5.13;;;5.40;49.10;;;;;;4915708;29;20213;-78
2022/03/12 19:23:19;;;;;;;11.47;5.70;;;5.20;49.70;;;;;;4916586;29;20744;-80
2022/03/12 19:25:47;;;;;;;7.90;5.43;;;5.20;49.90;;;;;;4913634;29;20327;-80
2022/03/12 19:28:15;;;;;;;8.93;5.93;;;5.20;49.50;;;;;;4915319;29;20264;-78
2022/03/12 19:30:48;;;;;;;18.47;9.97;;;5.10;49.50;;;;;;4897769;29;20209;-79
2022/03/12 19:33:17;;;;;;;12.90;8.33;;;5.00;50.00;;;;;;4911540;29;20493;-79
2022/03/12 19:35:45;;;;;;;14.60;8.87;;;4.90;50.00;;;;;;4915198;29;20287;-79
2022/03/12 19:38:17;;;;;;;14.27;7.87;;;4.80;50.00;;;;;;4916552;29;20229;-79
2022/03/12 19:40:48;;;;;;;8.20;6.30;;;4.70;50.50;;;;;;4915421;29;20258;-79
2022/03/12 19:43:17;;;;;;;8.83;6.37;;;4.60;51.10;;;;;;4915983;29;20247;-78
2022/03/12 19:45:46;;;;;;;13.27;7.00;;;4.50;51.10;;;;;;4915724;29;20201;-79
2022/03/12 19:48:14;;;;;;;9.60;6.97;;;4.50;50.90;;;;;;4916635;29;20197;-78
2022/03/12 19:50:42;;;;;;;8.63;6.10;;;4.40;51.00;;;;;;4915345;29;20221;-76